Time;durP1;ratioP1;P1;durP2;ratioP2;P2;SDS_P1;SDS_P2;PMS_P1;PMS_P2;Temp;Humidity;BMP_temperature;BMP_pressure;BME280_temperature;BME280_humidity;BME280_pressure;Samples;Min_cycle;Max_cycle;Signal;HPM_P1;HPM_P2
2022/08/26 00:00:51;;;;;;;27.92;18.17;;;;;;;;;;4995281;28;20026;-78
2022/08/26 00:03:17;;;;;;;28.60;18.13;;;;;;;;;;4993446;28;20034;-77
2022/08/26 00:05:43;;;;;;;25.17;16.85;;;;;;;;;;4995819;28;20085;-78
2022/08/26 00:08:08;;;;;;;23.85;17.15;;;;;;;;;;4993244;28;20157;-77
2022/08/26 00:10:34;;;;;;;20.00;15.90;;;;;;;;;;4995952;28;20030;-77
2022/08/26 00:12:59;;;;;;;20.30;14.65;;;;;;;;;;5010741;28;20042;-80
2022/08/26 00:15:25;;;;;;;20.08;15.75;;;;;;;;;;4994226;28;20468;-77
2022/08/26 00:17:51;;;;;;;19.85;15.52;;;;;;;;;;5010734;28;20409;-80
2022/08/26 00:20:18;;;;;;;20.50;15.55;;;;;;;;;;4978638;28;20074;-77
2022/08/26 00:22:43;;;;;;;25.90;17.83;;;;;;;;;;4994390;28;20034;-76
2022/08/26 00:25:10;;;;;;;38.58;24.33;;;;;;;;;;4994497;28;20086;-78
2022/08/26 00:27:36;;;;;;;34.67;24.52;;;;;;;;;;5010169;28;20062;-77
2022/08/26 00:30:03;;;;;;;43.15;27.23;;;;;;;;;;4995033;28;20057;-77
2022/08/26 00:32:28;;;;;;;59.22;33.78;;;;;;;;;;5002552;28;20073;-79
2022/08/26 00:34:54;;;;;;;53.83;33.15;;;;;;;;;;4976629;28;20031;-78
2022/08/26 00:37:19;;;;;;;52.30;34.63;;;;;;;;;;4993962;28;20436;-77
2022/08/26 00:39:45;;;;;;;49.78;32.15;;;;;;;;;;4993943;28;20030;-78
2022/08/26 00:42:11;;;;;;;40.22;28.45;;;;;;;;;;4994398;28;20092;-78
2022/08/26 00:44:36;;;;;;;41.92;28.48;;;;;;;;;;4982422;28;20027;-78
2022/08/26 00:47:03;;;;;;;38.13;26.15;;;;;;;;;;4993870;28;20027;-78
2022/08/26 00:49:29;;;;;;;32.17;23.58;;;;;;;;;;5009909;28;20022;-77
2022/08/26 00:51:54;;;;;;;33.83;23.13;;;;;;;;;;5008830;28;20409;-77
2022/08/26 00:54:21;;;;;;;29.95;23.48;;;;;;;;;;4993426;28;20030;-77
2022/08/26 00:56:49;;;;;;;29.05;21.40;;;;;;;;;;4993862;28;20050;-77
2022/08/26 00:59:15;;;;;;;24.90;20.10;;;;;;;;;;5008829;28;20033;-78
2022/08/26 01:01:41;;;;;;;26.80;20.25;;;;;;;;;;4993221;28;20030;-78
2022/08/26 01:04:06;;;;;;;26.85;19.30;;;;;;;;;;4994675;28;20085;-77
2022/08/26 01:06:32;;;;;;;25.27;18.85;;;;;;;;;;5007228;28;20452;-77
2022/08/26 01:08:57;;;;;;;23.85;18.70;;;;;;;;;;4993032;28;20030;-76
2022/08/26 01:11:23;;;;;;;24.70;18.05;;;;;;;;;;4993526;28;20454;-78
2022/08/26 01:13:50;;;;;;;23.15;17.98;;;;;;;;;;5009232;28;20033;-77
2022/08/26 01:16:15;;;;;;;25.60;17.88;;;;;;;;;;5009728;28;20437;-76
2022/08/26 01:18:42;;;;;;;21.55;16.40;;;;;;;;;;5009437;28;20042;-77
2022/08/26 01:21:19;;;;;;;25.20;16.10;;;;;;;;;;5009195;28;20109;-77
2022/08/26 01:23:46;;;;;;;18.88;14.95;;;;;;;;;;5008906;28;20080;-77
2022/08/26 01:26:12;;;;;;;20.27;16.02;;;;;;;;;;4957515;28;20053;-77
2022/08/26 01:28:39;;;;;;;18.23;14.55;;;;;;;;;;4989067;28;20079;-77
2022/08/26 01:31:07;;;;;;;19.02;13.95;;;;;;;;;;4993158;28;20025;-77
2022/08/26 01:33:59;;;;;;;17.85;13.80;;;;;;;;;;4981196;28;20482;-77
2022/08/26 01:36:25;;;;;;;17.33;14.82;;;;;;;;;;4987304;28;20038;-76
2022/08/26 01:38:50;;;;;;;19.23;17.17;;;;;;;;;;5005476;28;20421;-77
2022/08/26 01:41:16;;;;;;;18.95;16.45;;;;;;;;;;4992605;28;20049;-78
2022/08/26 01:43:45;;;;;;;21.05;16.55;;;;;;;;;;5008926;28;20470;-78
2022/08/26 01:46:10;;;;;;;20.63;17.15;;;;;;;;;;4993368;28;20038;-77
2022/08/26 01:48:36;;;;;;;20.95;18.00;;;;;;;;;;4989438;28;20026;-77
2022/08/26 01:51:02;;;;;;;18.75;16.70;;;;;;;;;;5008970;28;20045;-77
2022/08/26 01:53:27;;;;;;;19.73;16.02;;;;;;;;;;4989113;28;20121;-77
2022/08/26 01:55:54;;;;;;;18.95;16.52;;;;;;;;;;4993694;28;20066;-76
2022/08/26 01:58:20;;;;;;;19.88;16.55;;;;;;;;;;4992027;28;20482;-76
2022/08/26 02:00:46;;;;;;;20.50;16.63;;;;;;;;;;4973165;28;20026;-78
2022/08/26 02:03:20;;;;;;;20.60;16.27;;;;;;;;;;4991854;28;20034;-77
2022/08/26 02:05:51;;;;;;;18.58;15.55;;;;;;;;;;4992102;28;20057;-78
2022/08/26 02:08:17;;;;;;;17.95;15.95;;;;;;;;;;4997245;28;20038;-77
2022/08/26 02:10:43;;;;;;;16.75;14.80;;;;;;;;;;5008243;28;20041;-78
2022/08/26 02:13:08;;;;;;;19.60;16.23;;;;;;;;;;4992321;28;20034;-78
2022/08/26 02:15:34;;;;;;;19.13;15.45;;;;;;;;;;4975809;28;20077;-77
2022/08/26 02:17:59;;;;;;;18.23;15.75;;;;;;;;;;4992334;28;20034;-78
2022/08/26 02:20:25;;;;;;;18.75;15.50;;;;;;;;;;4986325;28;20041;-77
2022/08/26 02:22:51;;;;;;;15.98;14.30;;;;;;;;;;4991952;28;20074;-77
2022/08/26 02:25:24;;;;;;;19.35;15.30;;;;;;;;;;4992356;28;20037;-77
2022/08/26 02:27:49;;;;;;;19.70;15.68;;;;;;;;;;4992075;28;20182;-78
2022/08/26 02:30:16;;;;;;;22.80;15.25;;;;;;;;;;4995488;28;20052;-77
2022/08/26 02:32:42;;;;;;;21.85;15.02;;;;;;;;;;4991447;28;20041;-78
2022/08/26 02:35:08;;;;;;;16.33;14.32;;;;;;;;;;5008201;28;20117;-78
2022/08/26 02:37:33;;;;;;;22.02;15.48;;;;;;;;;;4988158;28;20046;-78
2022/08/26 02:39:59;;;;;;;18.17;14.98;;;;;;;;;;4968552;28;20022;-77
2022/08/26 02:42:25;;;;;;;20.98;15.90;;;;;;;;;;4993080;28;20034;-77
2022/08/26 02:44:50;;;;;;;21.98;17.67;;;;;;;;;;4992607;28;20034;-77
2022/08/26 02:47:16;;;;;;;23.80;18.42;;;;;;;;;;5007578;28;20070;-76
2022/08/26 02:49:41;;;;;;;20.83;18.55;;;;;;;;;;4991186;28;20374;-77
2022/08/26 02:52:07;;;;;;;28.88;19.88;;;;;;;;;;4992438;28;20042;-79
2022/08/26 02:54:32;;;;;;;24.05;19.08;;;;;;;;;;4975049;28;20037;-79
2022/08/26 02:56:58;;;;;;;24.67;18.88;;;;;;;;;;4992442;28;20030;-77
2022/08/26 02:59:24;;;;;;;25.98;18.88;;;;;;;;;;4973805;28;20046;-76
2022/08/26 03:01:49;;;;;;;23.08;19.10;;;;;;;;;;4992154;28;20081;-78
2022/08/26 03:04:15;;;;;;;25.17;18.17;;;;;;;;;;4974904;28;20030;-77
2022/08/26 03:06:40;;;;;;;25.58;17.85;;;;;;;;;;4971992;28;20089;-77
2022/08/26 03:09:06;;;;;;;20.23;16.30;;;;;;;;;;5003193;28;20478;-78
2022/08/26 03:11:31;;;;;;;19.58;16.35;;;;;;;;;;4991387;28;20121;-77
2022/08/26 03:13:57;;;;;;;20.08;16.27;;;;;;;;;;4991144;28;20026;-78
2022/08/26 03:16:23;;;;;;;22.48;14.90;;;;;;;;;;4995565;28;20077;-76
2022/08/26 03:18:48;;;;;;;19.50;14.20;;;;;;;;;;4995868;28;20058;-77
2022/08/26 03:21:15;;;;;;;19.10;14.77;;;;;;;;;;5012112;28;20117;-77
2022/08/26 03:23:40;;;;;;;17.48;14.07;;;;;;;;;;4996521;28;20080;-77
2022/08/26 03:26:06;;;;;;;18.00;13.65;;;;;;;;;;4995574;28;20377;-76
2022/08/26 03:28:31;;;;;;;19.20;12.65;;;;;;;;;;4994875;28;20402;-76
2022/08/26 03:30:57;;;;;;;15.45;12.63;;;;;;;;;;4995311;28;20034;-76
2022/08/26 03:33:23;;;;;;;21.63;13.13;;;;;;;;;;4979119;28;20405;-77
2022/08/26 03:35:48;;;;;;;17.67;13.38;;;;;;;;;;5011954;28;20111;-77
2022/08/26 03:38:14;;;;;;;19.85;15.15;;;;;;;;;;4995185;28;20057;-78
2022/08/26 03:40:41;;;;;;;20.30;15.10;;;;;;;;;;4994721;28;20461;-77
2022/08/26 03:43:06;;;;;;;19.77;17.08;;;;;;;;;;4995990;28;20030;-76
2022/08/26 03:45:32;;;;;;;24.13;17.52;;;;;;;;;;5011568;28;20188;-76
2022/08/26 03:47:57;;;;;;;25.25;18.45;;;;;;;;;;4992824;28;20037;-77
2022/08/26 03:50:23;;;;;;;27.05;20.58;;;;;;;;;;4995967;28;20046;-76
2022/08/26 03:52:49;;;;;;;30.17;21.25;;;;;;;;;;5010980;28;20045;-77
2022/08/26 03:55:15;;;;;;;32.53;21.17;;;;;;;;;;4992687;28;20045;-77
2022/08/26 03:57:40;;;;;;;31.27;21.77;;;;;;;;;;4976188;28;20030;-77
2022/08/26 04:00:07;;;;;;;32.03;20.80;;;;;;;;;;4994893;28;20049;-78
2022/08/26 04:02:34;;;;;;;30.77;21.15;;;;;;;;;;5010781;28;20076;-75
2022/08/26 04:04:59;;;;;;;32.90;21.35;;;;;;;;;;4995460;28;20062;-77
2022/08/26 04:07:25;;;;;;;28.58;19.80;;;;;;;;;;4994734;28;20080;-78
2022/08/26 04:09:57;;;;;;;30.23;18.85;;;;;;;;;;5011330;28;20030;-77
2022/08/26 04:12:23;;;;;;;26.85;18.92;;;;;;;;;;4961302;28;20057;-78
2022/08/26 04:14:49;;;;;;;25.50;18.05;;;;;;;;;;4995584;28;20149;-76
2022/08/26 04:17:14;;;;;;;22.67;16.77;;;;;;;;;;4994217;28;20465;-76
2022/08/26 04:19:40;;;;;;;23.52;16.40;;;;;;;;;;5009261;28;20034;-77
2022/08/26 04:22:06;;;;;;;22.58;16.15;;;;;;;;;;4995068;28;20031;-78
2022/08/26 04:24:32;;;;;;;20.70;15.07;;;;;;;;;;4995734;28;20127;-78
2022/08/26 04:26:58;;;;;;;22.23;15.35;;;;;;;;;;4993384;28;20489;-77
2022/08/26 04:29:24;;;;;;;20.50;14.73;;;;;;;;;;4995712;28;20084;-78
2022/08/26 04:31:49;;;;;;;21.67;14.68;;;;;;;;;;4986909;28;20045;-77
2022/08/26 04:34:15;;;;;;;25.30;15.88;;;;;;;;;;4994343;28;20034;-77
2022/08/26 04:36:41;;;;;;;20.88;15.77;;;;;;;;;;4995415;28;20069;-78
2022/08/26 04:39:08;;;;;;;22.05;15.77;;;;;;;;;;4978056;28;20025;-78
2022/08/26 04:41:34;;;;;;;30.08;16.48;;;;;;;;;;4993830;28;20129;-76
2022/08/26 04:44:01;;;;;;;24.17;15.80;;;;;;;;;;4991295;28;21110;-77
2022/08/26 04:46:26;;;;;;;21.33;15.88;;;;;;;;;;4991071;28;20038;-78
2022/08/26 04:48:52;;;;;;;34.15;16.40;;;;;;;;;;4994119;28;20050;-77
2022/08/26 04:51:22;;;;;;;28.13;17.73;;;;;;;;;;4994730;28;20070;-78
2022/08/26 04:53:48;;;;;;;23.25;16.02;;;;;;;;;;5009619;28;20034;-78
2022/08/26 04:56:14;;;;;;;26.48;17.23;;;;;;;;;;4993825;28;20039;-80
2022/08/26 04:58:40;;;;;;;25.05;17.30;;;;;;;;;;4987851;28;20553;-77
2022/08/26 05:01:07;;;;;;;26.52;17.38;;;;;;;;;;5007225;28;20026;-82
2022/08/26 05:03:32;;;;;;;25.75;17.73;;;;;;;;;;4978011;28;20026;-77
2022/08/26 05:05:58;;;;;;;27.02;18.35;;;;;;;;;;4961605;28;20037;-78
2022/08/26 05:08:23;;;;;;;25.52;17.17;;;;;;;;;;4977371;28;20093;-77
2022/08/26 05:10:49;;;;;;;28.63;15.77;;;;;;;;;;4977048;28;20453;-78
2022/08/26 05:13:16;;;;;;;21.42;14.20;;;;;;;;;;4995155;28;20033;-78
2022/08/26 05:15:42;;;;;;;24.00;15.85;;;;;;;;;;4992936;28;20094;-82
2022/08/26 05:18:07;;;;;;;22.00;14.93;;;;;;;;;;5009692;28;20062;-76
2022/08/26 05:20:37;;;;;;;21.02;14.18;;;;;;;;;;4994610;28;20034;-77
2022/08/26 05:23:03;;;;;;;19.52;13.50;;;;;;;;;;4993686;28;20461;-78
2022/08/26 05:25:28;;;;;;;18.40;12.43;;;;;;;;;;4993293;28;20041;-78
2022/08/26 05:27:54;;;;;;;17.05;11.07;;;;;;;;;;5009642;28;20042;-79
2022/08/26 05:30:20;;;;;;;13.90;11.60;;;;;;;;;;4992849;28;20045;-77
2022/08/26 05:32:48;;;;;;;17.27;13.10;;;;;;;;;;4993423;28;20437;-78
2022/08/26 05:35:14;;;;;;;16.02;11.35;;;;;;;;;;4993506;28;20038;-80
2022/08/26 05:37:40;;;;;;;14.57;10.57;;;;;;;;;;4992997;28;20037;-77
2022/08/26 05:40:06;;;;;;;15.30;11.70;;;;;;;;;;4994650;28;20126;-79
2022/08/26 05:42:32;;;;;;;16.65;11.02;;;;;;;;;;4993049;28;20477;-77
2022/08/26 05:44:57;;;;;;;17.30;10.80;;;;;;;;;;4976398;28;20034;-77
2022/08/26 05:47:23;;;;;;;12.07;10.02;;;;;;;;;;4994013;28;20441;-80
2022/08/26 05:49:49;;;;;;;12.88;10.55;;;;;;;;;;4992993;28;20034;-80
2022/08/26 05:52:14;;;;;;;15.80;10.55;;;;;;;;;;4992733;28;20037;-78
2022/08/26 05:54:40;;;;;;;13.32;9.55;;;;;;;;;;4993973;28;20026;-77
2022/08/26 05:57:05;;;;;;;18.05;10.27;;;;;;;;;;4994204;28;20397;-78
2022/08/26 05:59:31;;;;;;;16.30;10.50;;;;;;;;;;4991621;28;20038;-79
2022/08/26 06:01:57;;;;;;;13.20;9.68;;;;;;;;;;5009443;28;20046;-78
2022/08/26 06:04:24;;;;;;;18.48;10.48;;;;;;;;;;4975606;28;20041;-79
2022/08/26 06:06:49;;;;;;;14.00;10.20;;;;;;;;;;4973972;28;20030;-79
2022/08/26 06:09:15;;;;;;;16.55;9.98;;;;;;;;;;4988858;28;20092;-78
2022/08/26 06:11:40;;;;;;;22.27;11.00;;;;;;;;;;4989354;28;20042;-77
2022/08/26 06:14:06;;;;;;;16.17;9.63;;;;;;;;;;4992312;28;20870;-78
2022/08/26 06:16:33;;;;;;;14.10;9.60;;;;;;;;;;5009596;28;20121;-82
2022/08/26 06:18:59;;;;;;;19.45;10.43;;;;;;;;;;4993182;28;20382;-81
2022/08/26 06:21:26;;;;;;;14.05;10.20;;;;;;;;;;4993218;28;20045;-79
2022/08/26 06:26:36;;;;;;;13.77;10.73;;;;;;;;;;4987225;28;20053;-76
2022/08/26 06:29:02;;;;;;;18.88;10.20;;;;;;;;;;4990462;28;20026;-77
2022/08/26 06:31:28;;;;;;;13.93;10.25;;;;;;;;;;4991877;28;20030;-76
2022/08/26 06:33:53;;;;;;;17.23;10.45;;;;;;;;;;4990213;28;20041;-77
2022/08/26 06:36:20;;;;;;;16.75;9.68;;;;;;;;;;4992445;28;20406;-77
2022/08/26 06:38:46;;;;;;;17.20;11.70;;;;;;;;;;4973062;28;20488;-78
2022/08/26 06:41:12;;;;;;;14.52;10.13;;;;;;;;;;4986825;28;20453;-79
2022/08/26 06:43:37;;;;;;;13.93;10.93;;;;;;;;;;4985946;28;20037;-83
2022/08/26 06:46:04;;;;;;;15.70;10.70;;;;;;;;;;4971887;28;20042;-77
2022/08/26 06:48:30;;;;;;;16.92;11.15;;;;;;;;;;4989044;28;20026;-80
2022/08/26 06:51:02;;;;;;;21.77;10.93;;;;;;;;;;4956615;28;20061;-79
2022/08/26 06:53:27;;;;;;;16.50;10.25;;;;;;;;;;4991754;28;20488;-79
2022/08/26 06:55:53;;;;;;;12.95;9.75;;;;;;;;;;4976879;28;20034;-79
2022/08/26 06:58:18;;;;;;;14.55;8.77;;;;;;;;;;4959935;28;20039;-80
2022/08/26 07:00:44;;;;;;;12.00;9.55;;;;;;;;;;4992052;28;20029;-78
2022/08/26 07:03:10;;;;;;;13.18;9.52;;;;;;;;;;4976022;28;20034;-78
2022/08/26 07:05:35;;;;;;;14.95;9.70;;;;;;;;;;4992251;28;20051;-77
2022/08/26 07:08:01;;;;;;;14.38;9.27;;;;;;;;;;4976375;28;20549;-83
2022/08/26 07:10:27;;;;;;;14.07;8.50;;;;;;;;;;4992574;28;20389;-78
2022/08/26 07:12:53;;;;;;;13.10;9.55;;;;;;;;;;4996518;28;20099;-80
2022/08/26 07:15:18;;;;;;;11.48;8.55;;;;;;;;;;4991676;28;20055;-78
2022/08/26 07:17:44;;;;;;;14.00;8.73;;;;;;;;;;4992309;28;20042;-79
2022/08/26 07:20:10;;;;;;;12.68;8.90;;;;;;;;;;4972173;28;20029;-79
2022/08/26 07:22:36;;;;;;;13.23;8.93;;;;;;;;;;4980141;28;20441;-78
2022/08/26 07:25:02;;;;;;;15.73;9.05;;;;;;;;;;4991780;28;20088;-82
2022/08/26 07:27:28;;;;;;;13.68;8.85;;;;;;;;;;4991804;28;20129;-79
2022/08/26 07:29:57;;;;;;;16.58;9.07;;;;;;;;;;4992048;28;20485;-79
2022/08/26 07:32:22;;;;;;;12.70;8.63;;;;;;;;;;4971167;28;20466;-78
2022/08/26 07:34:48;;;;;;;10.20;8.65;;;;;;;;;;4985482;28;20137;-77
2022/08/26 07:37:13;;;;;;;13.63;8.32;;;;;;;;;;4993060;28;20409;-78
2022/08/26 07:39:40;;;;;;;12.70;8.27;;;;;;;;;;4992643;28;20045;-78
2022/08/26 07:42:06;;;;;;;14.98;8.82;;;;;;;;;;4992030;28;20030;-79
2022/08/26 07:44:32;;;;;;;14.82;8.32;;;;;;;;;;4976625;28;20469;-79
2022/08/26 07:46:58;;;;;;;15.35;8.75;;;;;;;;;;4993366;28;20042;-78
2022/08/26 07:49:23;;;;;;;10.43;8.15;;;;;;;;;;4993882;28;20113;-79
2022/08/26 07:51:49;;;;;;;11.88;7.85;;;;;;;;;;5008907;28;20073;-81
2022/08/26 07:54:15;;;;;;;10.38;8.23;;;;;;;;;;5008714;28;20026;-79
2022/08/26 07:56:41;;;;;;;11.35;8.93;;;;;;;;;;4975411;28;20030;-78
2022/08/26 07:59:07;;;;;;;12.40;8.45;;;;;;;;;;4975603;28;20037;-78
2022/08/26 08:01:33;;;;;;;9.40;7.95;;;;;;;;;;5000673;28;20041;-79
2022/08/26 08:03:59;;;;;;;11.77;8.25;;;;;;;;;;4980669;28;20026;-77
2022/08/26 08:06:25;;;;;;;10.63;7.65;;;;;;;;;;4994333;28;20441;-79
2022/08/26 08:08:50;;;;;;;14.30;7.72;;;;;;;;;;4979533;28;20057;-82
2022/08/26 08:11:16;;;;;;;10.52;7.93;;;;;;;;;;4979568;28;20125;-79
2022/08/26 08:13:42;;;;;;;10.85;7.70;;;;;;;;;;4977932;28;20033;-80
2022/08/26 08:16:07;;;;;;;14.05;7.75;;;;;;;;;;4995532;28;20050;-80
2022/08/26 08:57:06;;;;;;;7.60;6.13;;;;;;;;;;5331416;22;20260;-88
2022/08/26 11:52:13;;;;;;;7.32;3.95;;;;;;;;;;5236400;23;20027;-90
2022/08/26 11:54:42;;;;;;;6.13;4.00;;;;;;;;;;4965199;28;20022;-88
2022/08/26 11:57:08;;;;;;;7.18;3.80;;;;;;;;;;4924086;29;20027;-88
2022/08/26 11:59:37;;;;;;;7.90;3.50;;;;;;;;;;4978206;28;20015;-89
2022/08/26 12:02:11;;;;;;;5.55;3.58;;;;;;;;;;4966332;29;20019;-87
2022/08/26 12:05:05;;;;;;;6.90;4.10;;;;;;;;;;4939397;29;20521;-89
2022/08/26 12:07:37;;;;;;;10.82;3.65;;;;;;;;;;4947593;29;20019;-87
2022/08/26 12:10:03;;;;;;;7.13;3.28;;;;;;;;;;4946330;29;20039;-87
2022/08/26 12:12:31;;;;;;;5.40;3.40;;;;;;;;;;4944703;29;20062;-87
2022/08/26 12:15:16;;;;;;;5.75;3.88;;;;;;;;;;4945950;29;20050;-87
2022/08/26 12:17:43;;;;;;;6.22;3.80;;;;;;;;;;4940230;29;20047;-88
2022/08/26 12:20:28;;;;;;;7.70;3.90;;;;;;;;;;4936067;29;20003;-91
2022/08/26 12:23:27;;;;;;;9.75;3.80;;;;;;;;;;4960051;29;20039;-89
2022/08/26 12:26:10;;;;;;;4.22;3.35;;;;;;;;;;4963102;29;20031;-89
2022/08/26 12:28:50;;;;;;;10.07;4.43;;;;;;;;;;4971090;29;20043;-86
2022/08/26 12:31:40;;;;;;;8.60;4.00;;;;;;;;;;4954527;29;20047;-87
2022/08/26 12:34:07;;;;;;;10.45;4.53;;;;;;;;;;4974560;28;20051;-88
2022/08/26 12:36:55;;;;;;;8.00;3.63;;;;;;;;;;4947547;29;20004;-90
2022/08/26 12:42:06;;;;;;;7.03;3.80;;;;;;;;;;5425598;23;20022;-87
2022/08/26 12:47:21;;;;;;;6.32;3.90;;;;;;;;;;4954953;28;20063;-88
2022/08/26 12:49:49;;;;;;;7.63;3.83;;;;;;;;;;4960583;28;20062;-89
2022/08/26 12:52:30;;;;;;;4.38;3.60;;;;;;;;;;4943479;29;20079;-90
2022/08/26 13:09:46;;;;;;;6.45;4.00;;;;;;;;;;5135227;23;20165;-89
2022/08/26 13:15:03;;;;;;;6.72;3.53;;;;;;;;;;5246394;23;20304;-89
2022/08/26 13:17:50;;;;;;;7.53;3.70;;;;;;;;;;4961583;29;20039;-86
2022/08/26 13:22:46;;;;;;;8.15;5.10;;;;;;;;;;4957556;29;20458;-88
2022/08/26 13:25:13;;;;;;;7.40;4.10;;;;;;;;;;4927635;29;20100;-87
2022/08/26 13:27:39;;;;;;;6.47;4.15;;;;;;;;;;4954575;29;20044;-89
2022/08/26 13:30:04;;;;;;;7.07;4.47;;;;;;;;;;5241062;23;20014;-87
2022/08/26 13:36:04;;;;;;;5.90;4.38;;;;;;;;;;4994825;28;20041;-87
2022/08/26 13:38:33;;;;;;;8.80;4.10;;;;;;;;;;4989110;28;20095;-89
2022/08/26 13:41:01;;;;;;;10.48;4.32;;;;;;;;;;4957874;29;20058;-89
2022/08/26 13:43:29;;;;;;;7.50;3.97;;;;;;;;;;4956995;28;20089;-92
2022/08/26 13:45:55;;;;;;;10.82;4.45;;;;;;;;;;4975342;28;20053;-88
2022/08/26 13:48:26;;;;;;;5.90;4.05;;;;;;;;;;4971837;29;20035;-90
2022/08/26 13:50:52;;;;;;;9.20;4.50;;;;;;;;;;4943040;28;20414;-90
2022/08/26 13:53:18;;;;;;;6.63;3.97;;;;;;;;;;4952291;28;20023;-88
2022/08/26 13:55:44;;;;;;;8.70;4.88;;;;;;;;;;4951983;28;20015;-87
2022/08/26 13:58:10;;;;;;;8.63;4.50;;;;;;;;;;4967802;23;20040;-88
2022/08/26 14:00:36;;;;;;;7.35;4.20;;;;;;;;;;4925668;28;20055;-88
2022/08/26 14:03:03;;;;;;;6.70;4.10;;;;;;;;;;4913551;29;20079;-91
2022/08/26 14:05:42;;;;;;;9.48;4.15;;;;;;;;;;4968162;29;20038;-87
2022/08/26 14:11:07;;;;;;;6.38;4.20;;;;;;;;;;5795290;23;20033;31
2022/08/26 14:13:41;;;;;;;6.47;4.50;;;;;;;;;;4923411;29;20071;-88
2022/08/26 14:26:47;;;;;;;9.13;4.55;;;;;;;;;;4976769;28;20038;-87
2022/08/26 14:29:41;;;;;;;5.82;4.68;;;;;;;;;;5410366;23;20097;-89
2022/08/26 14:32:32;;;;;;;9.73;5.00;;;;;;;;;;4997554;28;20026;-90
2022/08/26 14:38:11;;;;;;;7.35;4.32;;;;;;;;;;5109485;23;20074;-88
2022/08/26 14:40:43;;;;;;;8.43;4.22;;;;;;;;;;5264080;23;20078;-89
2022/08/26 14:43:34;;;;;;;8.43;4.85;;;;;;;;;;4948171;29;20074;-89
2022/08/26 14:51:42;;;;;;;8.38;4.82;;;;;;;;;;5193165;23;19933;-87
2022/08/26 14:57:05;;;;;;;9.27;4.75;;;;;;;;;;4964919;28;20039;-88
2022/08/26 14:59:32;;;;;;;7.32;4.75;;;;;;;;;;4946033;29;20035;-89
2022/08/26 15:01:59;;;;;;;6.95;4.88;;;;;;;;;;4931241;29;20063;-89
2022/08/26 15:04:47;;;;;;;9.60;5.55;;;;;;;;;;4948375;28;20097;-90
2022/08/26 15:10:14;;;;;;;9.45;6.03;;;;;;;;;;4976978;28;20027;-89
2022/08/26 15:12:40;;;;;;;9.38;5.18;;;;;;;;;;4960975;29;20067;-89
2022/08/26 15:15:06;;;;;;;7.88;4.85;;;;;;;;;;4945057;28;20050;-88
2022/08/26 15:17:36;;;;;;;9.05;5.32;;;;;;;;;;5063901;23;20033;-81
2022/08/26 15:20:03;;;;;;;9.00;5.10;;;;;;;;;;4942922;29;20058;-90
2022/08/26 15:22:32;;;;;;;10.05;5.55;;;;;;;;;;4913576;28;20016;-88
2022/08/26 15:24:59;;;;;;;9.55;5.72;;;;;;;;;;4930983;29;20035;-87
2022/08/26 15:27:26;;;;;;;12.38;5.70;;;;;;;;;;4954316;29;20056;-89
2022/08/26 15:32:53;;;;;;;8.90;5.20;;;;;;;;;;5342338;23;20063;-89
2022/08/26 15:35:19;;;;;;;9.05;5.20;;;;;;;;;;4940815;29;20111;-89
2022/08/26 15:37:45;;;;;;;15.15;5.63;;;;;;;;;;4925538;29;20035;-89
2022/08/26 15:40:12;;;;;;;11.88;5.28;;;;;;;;;;4926480;29;20051;-89
2022/08/26 15:42:37;;;;;;;13.65;5.50;;;;;;;;;;4926246;29;20012;-89
2022/08/26 15:45:03;;;;;;;11.77;5.65;;;;;;;;;;4909112;29;20031;-87
2022/08/26 15:47:30;;;;;;;24.70;7.43;;;;;;;;;;4927480;29;20075;-89
2022/08/26 15:49:56;;;;;;;14.80;6.07;;;;;;;;;;4919385;29;20016;-89
2022/08/26 15:52:24;;;;;;;11.60;6.28;;;;;;;;;;4939834;29;20063;-89
2022/08/26 15:54:51;;;;;;;13.85;6.25;;;;;;;;;;4921854;29;20052;-88
2022/08/26 15:57:18;;;;;;;11.18;6.47;;;;;;;;;;4891360;29;20032;-88
2022/08/26 15:59:43;;;;;;;16.13;9.45;;;;;;;;;;4938629;29;20107;-87
2022/08/26 16:02:11;;;;;;;14.70;7.70;;;;;;;;;;4936626;29;20496;-88
2022/08/26 16:04:37;;;;;;;18.48;7.65;;;;;;;;;;4938919;29;20043;-87
2022/08/26 16:15:30;;;;;;;13.00;7.38;;;;;;;;;;4316451;23;25922330;-88
2022/08/26 16:26:36;;;;;;;13.43;7.90;;;;;;;;;;5190014;23;20066;-88
2022/08/26 16:29:06;;;;;;;14.82;7.85;;;;;;;;;;4947443;29;20041;-88
2022/08/26 16:31:32;;;;;;;14.93;8.52;;;;;;;;;;4931632;29;20039;-87
2022/08/26 16:34:06;;;;;;;13.30;7.50;;;;;;;;;;4965512;28;20031;-88
2022/08/26 16:50:28;;;;;;;17.08;8.55;;;;;;;;;;4772605;26;20058;-89
2022/08/26 16:52:56;;;;;;;15.95;9.10;;;;;;;;;;4965299;28;20043;-88
2022/08/26 16:58:44;;;;;;;15.68;9.27;;;;;;;;;;4995120;23;20055;-88
2022/08/26 17:01:14;;;;;;;14.38;8.82;;;;;;;;;;4960980;29;20035;-89
2022/08/26 17:03:41;;;;;;;17.90;8.65;;;;;;;;;;4947327;29;20015;-88
2022/08/26 17:06:07;;;;;;;23.70;10.13;;;;;;;;;;4927046;29;20031;-90
2022/08/26 17:08:35;;;;;;;26.10;9.18;;;;;;;;;;4955904;29;20039;-90
2022/08/26 17:11:06;;;;;;;17.83;9.30;;;;;;;;;;4951033;29;20042;-89
2022/08/26 17:16:13;;;;;;;18.92;9.90;;;;;;;;;;4770950;26;20050;-88
2022/08/26 17:18:41;;;;;;;16.50;9.90;;;;;;;;;;4951977;29;20035;-89
2022/08/26 17:21:08;;;;;;;14.90;9.68;;;;;;;;;;4935908;29;19995;-88
2022/08/26 17:23:39;;;;;;;21.80;9.93;;;;;;;;;;5207981;23;20131;-89
2022/08/26 17:26:06;;;;;;;19.13;10.68;;;;;;;;;;4940924;29;20059;-88
2022/08/26 17:29:17;;;;;;;22.20;10.68;;;;;;;;;;4948450;29;20051;-90
2022/08/26 17:31:45;;;;;;;14.13;9.25;;;;;;;;;;5206564;23;20035;-88
2022/08/26 17:34:35;;;;;;;17.50;9.85;;;;;;;;;;4957830;28;20027;-88
2022/08/26 17:37:01;;;;;;;13.55;9.52;;;;;;;;;;4945258;29;20039;-87
2022/08/26 17:39:27;;;;;;;19.92;9.70;;;;;;;;;;4930433;29;20089;-89
2022/08/26 17:41:58;;;;;;;16.95;10.52;;;;;;;;;;4944574;29;20012;-88
2022/08/26 17:44:53;;;;;;;19.40;10.40;;;;;;;;;;4948519;28;20024;-89
2022/08/26 17:50:41;;;;;;;20.90;11.07;;;;;;;;;;4976505;28;20023;-88
2022/08/26 17:53:07;;;;;;;20.67;10.32;;;;;;;;;;4938268;29;20502;-89
2022/08/26 17:55:36;;;;;;;19.08;10.32;;;;;;;;;;5155256;23;20041;-86
2022/08/26 17:58:47;;;;;;;16.90;10.70;;;;;;;;;;4958037;28;20027;-88
2022/08/26 18:06:50;;;;;;;19.27;10.75;;;;;;;;;;1476125;26;20073;-88
2022/08/26 18:09:17;;;;;;;17.58;9.73;;;;;;;;;;4945510;29;20079;-87
2022/08/26 18:11:43;;;;;;;20.38;10.63;;;;;;;;;;4947193;28;20035;-88
2022/08/26 18:17:32;;;;;;;45.88;33.88;;;;;;;;;;5710842;23;20051;-89
2022/08/26 18:36:53;;;;;;;20.27;11.80;;;;;;;;;;5834438;23;20026;-89
2022/08/26 18:39:41;;;;;;;20.40;11.85;;;;;;;;;;4966213;28;20048;-89
2022/08/26 18:42:07;;;;;;;18.25;11.27;;;;;;;;;;4946669;29;20031;-91
2022/08/26 18:45:19;;;;;;;17.85;10.70;;;;;;;;;;5016921;23;20085;-87
2022/08/26 18:47:46;;;;;;;14.77;10.60;;;;;;;;;;4932962;29;20063;-88
2022/08/26 18:50:14;;;;;;;14.52;10.00;;;;;;;;;;4934296;29;20031;-89
2022/08/26 18:53:08;;;;;;;16.88;10.30;;;;;;;;;;4962854;23;20082;-88
2022/08/26 18:55:35;;;;;;;15.50;10.68;;;;;;;;;;4942393;29;20040;-89
2022/08/26 18:58:01;;;;;;;15.88;10.60;;;;;;;;;;4927122;29;20032;-88
2022/08/26 19:00:33;;;;;;;16.73;10.85;;;;;;;;;;4943982;29;20047;-88
2022/08/26 19:05:51;;;;;;;18.52;11.40;;;;;;;;;;4939906;29;20044;-87
2022/08/26 19:08:17;;;;;;;14.73;10.65;;;;;;;;;;4926645;29;20094;-88
2022/08/26 19:10:43;;;;;;;20.33;10.25;;;;;;;;;;4923310;29;20044;-88
2022/08/26 19:13:09;;;;;;;17.58;10.02;;;;;;;;;;4926457;29;20028;-90
2022/08/26 19:15:44;;;;;;;13.98;10.18;;;;;;;;;;4929349;29;20047;-90
2022/08/26 19:18:13;;;;;;;15.43;10.57;;;;;;;;;;4929797;29;20059;-90
2022/08/26 19:20:40;;;;;;;18.13;11.77;;;;;;;;;;4938635;29;20038;-88
2022/08/26 19:23:06;;;;;;;17.17;12.15;;;;;;;;;;4930962;29;20036;-89
2022/08/26 19:25:38;;;;;;;17.67;12.70;;;;;;;;;;4944334;29;20095;-89
2022/08/26 19:28:03;;;;;;;18.25;12.50;;;;;;;;;;4914809;29;20032;-89
2022/08/26 19:30:29;;;;;;;20.00;13.27;;;;;;;;;;4938353;29;20099;-89
2022/08/26 19:33:00;;;;;;;19.42;13.30;;;;;;;;;;4930410;29;20018;-89
2022/08/26 19:35:27;;;;;;;23.85;13.95;;;;;;;;;;4939444;29;20419;-89
2022/08/26 19:37:53;;;;;;;23.73;13.52;;;;;;;;;;4923661;29;20024;-89
2022/08/26 19:40:24;;;;;;;20.10;13.60;;;;;;;;;;4981679;23;20091;-88
2022/08/26 19:42:51;;;;;;;18.73;12.98;;;;;;;;;;4943459;29;20079;-89
2022/08/26 19:45:18;;;;;;;20.40;14.10;;;;;;;;;;4929869;29;20034;-89
2022/08/26 19:47:50;;;;;;;17.25;11.43;;;;;;;;;;4945209;29;20039;-87
2022/08/26 19:50:17;;;;;;;19.55;12.85;;;;;;;;;;4942082;29;20030;-89
2022/08/26 19:52:46;;;;;;;19.67;11.73;;;;;;;;;;4957874;29;20034;-90
2022/08/26 19:55:12;;;;;;;17.27;11.98;;;;;;;;;;4942443;29;20039;-88
2022/08/26 19:57:38;;;;;;;16.23;12.40;;;;;;;;;;4944044;29;20036;-88
2022/08/26 20:00:09;;;;;;;20.80;13.15;;;;;;;;;;4943793;29;20032;-88
2022/08/26 20:02:35;;;;;;;20.55;11.75;;;;;;;;;;4961792;29;20495;-88
2022/08/26 20:05:02;;;;;;;19.05;12.85;;;;;;;;;;4941175;29;20031;-88
2022/08/26 20:07:28;;;;;;;18.95;13.13;;;;;;;;;;4931168;29;20035;-88
2022/08/26 20:09:53;;;;;;;18.45;12.48;;;;;;;;;;4947945;29;20030;-87
2022/08/26 20:12:32;;;;;;;24.27;14.85;;;;;;;;;;4961679;29;20039;-90